Time;durP1;ratioP1;P1;durP2;ratioP2;P2;SDS_P1;SDS_P2;PMS_P1;PMS_P2;Temp;Humidity;BMP_temperature;BMP_pressure;BME280_temperature;BME280_humidity;BME280_pressure;Samples;Min_cycle;Max_cycle;Signal;HPM_P1;HPM_P2
2022/03/09 00:03:18;;;;;;;70.90;32.80;;;23.70;49.70;;;;;;219877;1267;22652;-55
2022/03/09 00:08:22;;;;;;;64.70;32.20;;;23.80;49.70;;;;;;220025;1267;22564;-56
2022/03/09 00:13:26;;;;;;;67.00;31.20;;;23.90;49.00;;;;;;219793;1267;22555;-56
2022/03/09 00:18:34;;;;;;;60.20;29.50;;;24.00;48.80;;;;;;220082;1267;24386;-57
2022/03/09 00:23:39;;;;;;;64.60;31.20;;;24.10;48.50;;;;;;219807;1267;24225;-57
2022/03/09 00:28:45;;;;;;;58.10;29.10;;;24.20;48.30;;;;;;219878;1267;22681;-56
2022/03/09 00:33:55;;;;;;;60.90;29.50;;;24.30;48.10;;;;;;219890;1267;25592;-57
2022/03/09 00:39:12;;;;;;;56.10;26.70;;;24.40;47.80;;;;;;220157;1267;25245;-58
2022/03/09 00:44:17;;;;;;;59.80;28.70;;;24.50;47.70;;;;;;220035;1267;22729;-57
2022/03/09 00:49:24;;;;;;;59.20;29.00;;;24.50;47.60;;;;;;220069;1266;25576;-54
2022/03/09 00:54:39;;;;;;;58.70;29.40;;;24.50;47.50;;;;;;220102;1267;24458;-56
2022/03/09 00:59:51;;;;;;;50.70;27.50;;;24.50;47.40;;;;;;219830;1267;25704;-57
2022/03/09 01:04:54;;;;;;;55.00;26.90;;;24.50;47.30;;;;;;220105;1267;24321;-57
2022/03/09 01:09:58;;;;;;;47.70;24.50;;;24.40;47.70;;;;;;219829;1268;22567;-59
2022/03/09 01:15:04;;;;;;;52.20;26.80;;;24.30;47.70;;;;;;220204;1267;25319;-57
2022/03/09 01:20:15;;;;;;;49.20;25.90;;;24.10;48.40;;;;;;220034;1267;22553;-56
2022/03/09 01:25:34;;;;;;;53.10;25.70;;;24.10;48.10;;;;;;219862;1267;24344;-56
2022/03/09 01:30:43;;;;;;;45.00;23.70;;;24.00;48.10;;;;;;219822;1267;24250;-53
2022/03/09 01:35:48;;;;;;;47.30;24.80;;;23.80;48.40;;;;;;220635;1267;26593;-58
2022/03/09 01:40:51;;;;;;;45.40;24.40;;;23.70;48.50;;;;;;219980;1267;22531;-56
2022/03/09 01:45:57;;;;;;;42.40;24.10;;;23.60;48.70;;;;;;219927;1267;22789;-55
2022/03/09 01:51:00;;;;;;;45.00;23.10;;;23.50;48.90;;;;;;220119;1267;22526;-56
2022/03/09 01:56:04;;;;;;;42.30;23.10;;;23.40;49.00;;;;;;220074;1267;22595;-56
2022/03/09 02:01:08;;;;;;;40.60;22.80;;;23.30;49.00;;;;;;220234;1267;25505;-57
2022/03/09 02:06:13;;;;;;;39.20;22.00;;;23.20;49.90;;;;;;220209;1267;22720;-56
2022/03/09 02:11:17;;;;;;;40.90;22.20;;;23.20;49.40;;;;;;219836;1267;25577;-56
2022/03/09 02:16:21;;;;;;;36.40;21.50;;;23.10;49.40;;;;;;220164;1267;22528;-55
2022/03/09 02:21:26;;;;;;;36.10;21.00;;;23.00;49.60;;;;;;219975;1267;23100;-56
2022/03/09 02:26:31;;;;;;;43.90;22.40;;;22.90;49.60;;;;;;219852;1267;22535;-57
2022/03/09 02:31:35;;;;;;;39.60;20.60;;;22.90;49.70;;;;;;219681;1267;22522;-55
2022/03/09 02:36:41;;;;;;;37.50;22.20;;;22.80;49.60;;;;;;220258;1267;22697;-54
2022/03/09 02:41:45;;;;;;;38.80;21.30;;;22.70;49.70;;;;;;219818;1267;22544;-55
2022/03/09 02:46:50;;;;;;;32.00;19.00;;;22.70;49.80;;;;;;219832;1267;22633;-60
2022/03/09 02:51:53;;;;;;;39.50;20.10;;;22.60;49.80;;;;;;219975;1267;24482;-57
2022/03/09 02:56:57;;;;;;;35.60;19.70;;;22.50;49.90;;;;;;219686;1267;22564;-58
2022/03/09 03:02:03;;;;;;;34.90;20.20;;;22.50;49.90;;;;;;220010;1267;23908;-55
2022/03/09 03:07:07;;;;;;;35.20;19.80;;;22.50;50.20;;;;;;219742;1267;25294;-57
2022/03/09 03:12:11;;;;;;;34.40;18.10;;;22.50;49.70;;;;;;219674;1267;22994;-59
2022/03/09 03:17:15;;;;;;;34.40;18.30;;;22.80;49.20;;;;;;220122;1267;22620;-56
2022/03/09 03:22:19;;;;;;;33.90;17.30;;;23.20;48.30;;;;;;219744;1267;22859;-56
2022/03/09 03:27:24;;;;;;;34.70;18.60;;;23.50;48.10;;;;;;219978;1267;25207;-55
2022/03/09 03:32:28;;;;;;;27.90;16.70;;;23.70;47.50;;;;;;219719;1267;25491;-58
2022/03/09 03:37:31;;;;;;;32.00;18.20;;;23.80;47.10;;;;;;219667;1267;24256;-58
2022/03/09 03:42:35;;;;;;;30.90;17.90;;;23.90;47.00;;;;;;219783;1267;25686;-56
2022/03/09 03:47:39;;;;;;;27.40;16.50;;;24.00;46.50;;;;;;220089;1267;25668;-54
2022/03/09 03:52:42;;;;;;;31.00;17.60;;;24.00;46.30;;;;;;219759;1267;22549;-56
2022/03/09 03:57:45;;;;;;;29.30;17.30;;;24.20;45.90;;;;;;219747;1268;22653;-58
2022/03/09 04:02:51;;;;;;;29.60;16.80;;;24.20;45.90;;;;;;219763;1267;22621;-56
2022/03/09 04:07:55;;;;;;;29.50;16.60;;;24.20;45.80;;;;;;219867;1267;22598;-55
2022/03/09 04:13:00;;;;;;;26.70;16.40;;;24.30;45.60;;;;;;219910;1267;25257;-58
2022/03/09 04:18:04;;;;;;;28.10;16.70;;;24.30;45.70;;;;;;220155;1270;25258;-57
2022/03/09 04:23:09;;;;;;;27.60;15.70;;;24.30;45.50;;;;;;220062;1267;22555;-56
2022/03/09 04:28:12;;;;;;;25.20;15.30;;;24.30;45.60;;;;;;220002;1267;25273;-55
2022/03/09 04:33:16;;;;;;;31.10;15.70;;;24.50;45.50;;;;;;219894;1267;25523;-56
2022/03/09 04:38:21;;;;;;;27.10;15.40;;;24.40;45.60;;;;;;220063;1267;24316;-56
2022/03/09 04:43:32;;;;;;;25.20;15.50;;;24.50;45.30;;;;;;220018;1267;24347;-55
2022/03/09 04:48:36;;;;;;;24.00;15.20;;;24.50;45.70;;;;;;220165;1267;170929;-57
2022/03/09 04:53:40;;;;;;;23.00;14.20;;;24.50;45.40;;;;;;219771;1267;22553;-55
2022/03/09 04:58:44;;;;;;;23.90;14.60;;;24.50;45.30;;;;;;219711;1267;22544;-56
2022/03/09 05:03:47;;;;;;;22.30;13.90;;;24.50;45.30;;;;;;220144;1267;22551;-52
2022/03/09 05:08:51;;;;;;;27.80;15.30;;;24.50;45.20;;;;;;219687;1267;22622;-58
2022/03/09 05:13:54;;;;;;;28.30;15.70;;;24.40;45.30;;;;;;220117;1267;22998;-56
2022/03/09 05:18:58;;;;;;;22.70;14.10;;;24.30;45.40;;;;;;219807;1267;22553;-56
2022/03/09 05:24:02;;;;;;;23.10;14.20;;;24.10;45.60;;;;;;219722;1267;23378;-57
2022/03/09 05:29:06;;;;;;;25.20;14.60;;;24.00;45.80;;;;;;219869;1267;23085;-56
2022/03/09 05:34:12;;;;;;;25.60;14.70;;;23.90;46.10;;;;;;220332;1268;24298;-56
2022/03/09 05:39:15;;;;;;;21.40;13.70;;;23.70;46.30;;;;;;219989;1268;22758;-56
2022/03/09 05:44:19;;;;;;;22.80;14.40;;;23.60;46.80;;;;;;219803;1267;23648;-57
2022/03/09 05:49:23;;;;;;;23.20;14.60;;;23.40;46.70;;;;;;219883;1268;22606;-56
2022/03/09 05:54:26;;;;;;;23.80;14.00;;;23.30;47.00;;;;;;220012;1267;22557;-57
2022/03/09 05:59:30;;;;;;;20.50;13.30;;;23.20;47.00;;;;;;219894;1268;22523;-55
2022/03/09 06:04:35;;;;;;;24.60;14.20;;;23.20;47.20;;;;;;220045;1268;27033;-54
2022/03/09 06:09:40;;;;;;;25.60;13.80;;;23.10;47.40;;;;;;219840;1267;22525;-56
2022/03/09 06:14:43;;;;;;;22.70;13.90;;;23.00;47.60;;;;;;219701;1267;22672;-56
2022/03/09 06:19:47;;;;;;;28.80;14.50;;;23.00;47.60;;;;;;219900;1266;22823;-54
2022/03/09 06:24:51;;;;;;;41.30;15.20;;;22.80;47.80;;;;;;219687;1267;25323;-56
2022/03/09 06:29:57;;;;;;;29.80;14.30;;;22.80;49.00;;;;;;219981;1267;22544;-55
2022/03/09 06:35:03;;;;;;;20.20;12.50;;;22.70;48.10;;;;;;220043;1267;22614;-53
2022/03/09 06:40:08;;;;;;;21.90;12.20;;;22.60;48.40;;;;;;219819;1267;26623;-56
2022/03/09 06:45:13;;;;;;;23.20;13.20;;;22.70;48.70;;;;;;220203;1267;26374;-56
2022/03/09 06:50:17;;;;;;;23.20;13.00;;;22.60;48.60;;;;;;220288;1268;23848;-56
2022/03/09 06:55:21;;;;;;;25.40;12.80;;;22.60;48.60;;;;;;220254;1267;24298;-56
2022/03/09 07:00:28;;;;;;;28.20;13.50;;;22.60;48.80;;;;;;220220;1267;22531;-57
2022/03/09 07:05:33;;;;;;;28.00;13.00;;;22.60;48.70;;;;;;220300;1267;22649;-56
2022/03/09 07:10:37;;;;;;;22.40;12.30;;;22.60;48.70;;;;;;220085;1267;24498;-58
2022/03/09 07:15:41;;;;;;;22.20;11.90;;;22.80;48.30;;;;;;219822;1267;22560;-57
2022/03/09 07:20:44;;;;;;;25.30;11.80;;;23.10;47.50;;;;;;219796;1267;25730;-58
2022/03/09 07:25:48;;;;;;;25.80;10.70;;;23.40;47.20;;;;;;219734;1267;25576;-58
2022/03/09 07:30:52;;;;;;;20.10;11.60;;;23.60;46.60;;;;;;219974;1266;22609;-56
2022/03/09 07:35:56;;;;;;;22.90;12.10;;;23.90;46.30;;;;;;220785;1267;25371;-60
2022/03/09 07:41:00;;;;;;;23.20;12.30;;;23.90;46.50;;;;;;220108;1267;26700;-58
2022/03/09 07:46:03;;;;;;;20.60;11.10;;;24.10;45.60;;;;;;221034;1267;24098;-56
2022/03/09 07:51:10;;;;;;;20.80;11.00;;;24.10;46.30;;;;;;219888;1267;26568;-58
2022/03/09 07:56:14;;;;;;;19.20;11.00;;;24.10;45.90;;;;;;219963;1267;23053;-58
2022/03/09 08:01:20;;;;;;;19.50;11.20;;;24.10;45.80;;;;;;219791;1267;24536;-59
2022/03/09 08:06:37;;;;;;;19.10;10.40;;;24.30;45.70;;;;;;219842;1267;24460;-58
2022/03/09 08:11:59;;;;;;;21.20;11.40;;;24.30;45.60;;;;;;220619;1267;25584;-56
2022/03/09 08:17:04;;;;;;;21.90;10.60;;;24.30;45.50;;;;;;220114;1267;22566;-56
2022/03/09 08:22:09;;;;;;;19.50;10.70;;;24.40;45.30;;;;;;219914;1267;25509;-58
2022/03/09 08:27:13;;;;;;;17.70;10.00;;;24.40;45.30;;;;;;219883;1267;22605;-54
2022/03/09 08:32:19;;;;;;;15.80;9.40;;;24.30;45.80;;;;;;219846;1267;27054;-55
2022/03/09 08:37:23;;;;;;;21.10;10.70;;;24.30;45.60;;;;;;220092;1267;25525;-55
2022/03/09 08:42:26;;;;;;;15.70;9.00;;;24.20;46.10;;;;;;220071;1267;22682;-54
2022/03/09 08:47:30;;;;;;;18.80;9.50;;;24.10;46.30;;;;;;220484;1267;22540;-55
2022/03/09 08:52:34;;;;;;;18.90;10.00;;;24.00;46.20;;;;;;220268;1266;22785;-54
2022/03/09 08:57:37;;;;;;;15.00;9.00;;;24.00;46.70;;;;;;220361;1267;25366;-54
2022/03/09 09:02:42;;;;;;;18.90;9.40;;;23.90;46.40;;;;;;220044;1267;25414;-56
2022/03/09 09:07:46;;;;;;;19.20;9.40;;;23.90;46.80;;;;;;220096;1267;24104;-53
2022/03/09 09:12:50;;;;;;;16.80;9.00;;;23.90;46.50;;;;;;219980;1267;25428;-55
2022/03/09 09:18:01;;;;;;;30.40;10.40;;;23.90;46.80;;;;;;220036;1267;22541;-57
2022/03/09 09:23:23;;;;;;;21.30;9.20;;;24.00;46.40;;;;;;220137;1267;22525;-54
2022/03/09 09:28:28;;;;;;;16.90;8.10;;;24.10;46.20;;;;;;219987;1267;22573;-56
2022/03/09 09:33:32;;;;;;;13.90;7.90;;;24.10;46.40;;;;;;220242;1267;22520;-56
2022/03/09 09:38:35;;;;;;;15.80;8.20;;;24.10;46.30;;;;;;220036;1267;22541;-54
2022/03/09 09:43:40;;;;;;;14.10;7.90;;;24.00;46.40;;;;;;220298;1267;22544;-55
2022/03/09 09:48:44;;;;;;;13.30;7.10;;;23.90;44.10;;;;;;219907;1267;25303;-57
2022/03/09 09:53:48;;;;;;;18.80;7.00;;;23.90;45.20;;;;;;220100;1267;22543;-58
2022/03/09 09:58:56;;;;;;;18.30;7.30;;;23.90;45.40;;;;;;220153;1267;22644;-56
2022/03/09 10:04:03;;;;;;;19.90;7.70;;;23.90;46.10;;;;;;220054;1267;22789;-56
2022/03/09 10:09:12;;;;;;;15.60;7.50;;;23.80;46.60;;;;;;220565;1267;22538;-56
2022/03/09 10:14:37;;;;;;;13.20;6.50;;;23.80;46.60;;;;;;220185;1269;23955;-55
2022/03/09 10:19:52;;;;;;;13.20;7.30;;;23.80;47.10;;;;;;220043;1267;22526;-56
2022/03/09 10:25:16;;;;;;;26.60;9.30;;;23.80;46.90;;;;;;219799;1267;22544;-56
2022/03/09 10:30:21;;;;;;;13.00;6.40;;;23.80;46.70;;;;;;220328;1267;22602;-58
2022/03/09 10:35:27;;;;;;;22.80;7.80;;;23.80;47.10;;;;;;219881;1267;22578;-56
2022/03/09 10:40:33;;;;;;;17.20;7.00;;;23.80;46.90;;;;;;220233;1267;22647;-58
2022/03/09 10:45:53;;;;;;;12.40;5.50;;;23.70;47.50;;;;;;220127;1267;24488;-56
2022/03/09 10:50:58;;;;;;;24.50;6.40;;;23.70;47.30;;;;;;219849;1267;22531;-56
2022/03/09 10:56:01;;;;;;;16.90;6.60;;;23.70;47.30;;;;;;219833;1267;22554;-57
2022/03/09 11:01:05;;;;;;;10.00;5.30;;;23.60;47.40;;;;;;219808;1267;27030;-57
2022/03/09 11:06:10;;;;;;;10.60;5.60;;;23.70;47.30;;;;;;219884;1271;22568;-56
2022/03/09 11:11:14;;;;;;;12.40;5.70;;;23.80;47.30;;;;;;220278;1267;22568;-57
2022/03/09 11:16:21;;;;;;;15.30;5.80;;;23.80;47.10;;;;;;220167;1267;25719;-55
2022/03/09 11:21:31;;;;;;;13.40;5.20;;;23.70;47.40;;;;;;219910;1270;22690;-56
2022/03/09 11:26:46;;;;;;;17.20;6.20;;;23.70;47.60;;;;;;220020;1267;22717;-55
2022/03/09 11:31:52;;;;;;;23.70;6.80;;;23.80;47.50;;;;;;220821;1270;25421;-54
2022/03/09 11:37:03;;;;;;;17.90;5.80;;;23.70;47.60;;;;;;220135;1270;26531;-54
2022/03/09 11:42:21;;;;;;;11.50;5.90;;;23.80;47.60;;;;;;219977;1267;22558;-54
2022/03/09 11:48:09;;;;;;;22.50;5.30;;;23.80;47.60;;;;;;219751;1267;24293;-57
2022/03/09 11:54:01;;;;;;;14.70;5.20;;;23.80;47.70;;;;;;227792;1267;22704;-55
2022/03/09 11:59:15;;;;;;;13.60;5.50;;;23.80;47.80;;;;;;227806;1267;22997;-53
2022/03/09 12:04:45;;;;;;;11.20;5.10;;;23.80;47.50;;;;;;227858;1266;23291;-54
2022/03/09 12:10:14;;;;;;;11.30;5.00;;;23.80;47.60;;;;;;227979;1266;23208;-55
2022/03/09 12:15:18;;;;;;;8.90;5.00;;;23.90;47.20;;;;;;227945;1266;22475;-57
2022/03/09 12:20:30;;;;;;;13.50;5.50;;;24.00;46.80;;;;;;227764;1267;22360;-55
2022/03/09 12:25:42;;;;;;;14.40;6.20;;;24.00;46.00;;;;;;227844;1266;23208;-58
2022/03/09 12:30:47;;;;;;;9.60;5.70;;;24.00;45.50;;;;;;227849;1266;22517;-57
2022/03/09 12:35:53;;;;;;;39.20;10.60;;;23.90;44.70;;;;;;221665;1267;22534;-57
2022/03/09 12:41:29;;;;;;;57.80;18.00;;;24.00;44.50;;;;;;227780;1266;23094;-59
2022/03/09 12:46:36;;;;;;;223.50;62.80;;;23.90;43.90;;;;;;227909;1266;22497;-58
2022/03/09 12:51:53;;;;;;;411.40;118.80;;;23.90;43.10;;;;;;227944;1266;22855;-59
2022/03/09 12:57:23;;;;;;;230.60;71.30;;;23.90;42.40;;;;;;226886;1266;22574;-57
2022/03/09 13:02:47;;;;;;;199.80;57.20;;;23.90;42.10;;;;;;219623;1267;25458;-54
2022/03/09 13:08:08;;;;;;;158.10;49.40;;;23.90;41.40;;;;;;219651;1267;24492;-56
2022/03/09 13:13:11;;;;;;;143.10;47.20;;;23.80;41.10;;;;;;219646;1267;22541;-59
2022/03/09 13:18:31;;;;;;;141.40;44.40;;;23.70;40.90;;;;;;220512;1267;25574;-55
2022/03/09 13:23:44;;;;;;;137.60;44.60;;;23.70;41.20;;;;;;220008;1268;22553;-56
2022/03/09 13:29:00;;;;;;;109.40;38.00;;;23.70;40.80;;;;;;220225;1267;26486;-54
2022/03/09 13:34:14;;;;;;;119.10;41.20;;;23.70;40.50;;;;;;220315;1267;22529;-57
2022/03/09 13:39:18;;;;;;;96.70;34.60;;;23.80;40.80;;;;;;220051;1268;23166;-58
2022/03/09 13:44:30;;;;;;;94.40;32.20;;;23.70;40.10;;;;;;220055;1268;22828;-59
2022/03/09 13:49:49;;;;;;;100.10;33.20;;;23.70;40.10;;;;;;219572;1270;22702;-55
2022/03/09 13:54:53;;;;;;;86.90;30.30;;;23.70;39.60;;;;;;221317;1269;22530;-56
2022/03/09 13:59:59;;;;;;;82.40;27.70;;;23.70;39.80;;;;;;220238;1271;22611;-56
2022/03/09 14:05:11;;;;;;;79.20;27.80;;;23.70;39.80;;;;;;219865;1268;25351;-57
2022/03/09 14:10:36;;;;;;;72.00;24.20;;;23.60;40.70;;;;;;219633;1268;25411;-56
2022/03/09 14:15:41;;;;;;;74.60;25.50;;;23.70;41.00;;;;;;220033;1267;26725;-57
2022/03/09 14:20:47;;;;;;;66.40;23.20;;;23.70;41.00;;;;;;219723;1268;22549;-57
2022/03/09 14:25:50;;;;;;;59.00;23.60;;;23.60;39.80;;;;;;219795;1267;24259;-56
2022/03/09 14:30:54;;;;;;;49.10;21.20;;;23.60;39.90;;;;;;219602;1270;26520;-56
2022/03/09 14:35:58;;;;;;;57.00;21.60;;;23.60;39.70;;;;;;219673;1267;22550;-56
2022/03/09 14:41:05;;;;;;;48.00;18.40;;;23.50;39.40;;;;;;219823;1268;22592;-56
2022/03/09 14:46:09;;;;;;;42.70;17.20;;;23.50;39.50;;;;;;219633;1268;22525;-57
2022/03/09 14:51:15;;;;;;;39.30;16.30;;;23.30;39.40;;;;;;219613;1268;24340;-57
2022/03/09 14:56:20;;;;;;;39.80;16.20;;;23.20;39.00;;;;;;219623;1270;26487;-56
2022/03/09 15:01:26;;;;;;;34.60;15.30;;;23.20;38.90;;;;;;219971;1267;25517;-56
2022/03/09 15:06:36;;;;;;;30.40;13.30;;;23.10;39.30;;;;;;220409;1270;22717;-56
2022/03/09 15:11:40;;;;;;;34.90;13.10;;;23.10;39.70;;;;;;220004;1268;25407;-54
2022/03/09 15:16:45;;;;;;;33.80;12.30;;;23.00;39.70;;;;;;219783;1268;23336;-56
2022/03/09 15:21:54;;;;;;;28.00;11.50;;;23.00;39.20;;;;;;219895;1268;22537;-56
2022/03/09 15:26:58;;;;;;;28.80;12.00;;;23.00;38.70;;;;;;219928;1268;22609;-56
2022/03/09 15:32:03;;;;;;;31.80;12.00;;;22.90;38.70;;;;;;219652;1268;22549;-52
2022/03/09 15:37:08;;;;;;;23.00;10.40;;;22.90;38.40;;;;;;219808;1268;22520;-54
2022/03/09 15:42:12;;;;;;;27.30;10.80;;;22.80;39.00;;;;;;220297;1268;24283;-54
2022/03/09 15:47:18;;;;;;;26.20;10.20;;;22.80;38.60;;;;;;219683;1268;25712;-54
2022/03/09 15:52:22;;;;;;;26.90;10.10;;;22.70;38.70;;;;;;219664;1268;24428;-51
2022/03/09 15:57:26;;;;;;;16.90;8.00;;;22.70;38.30;;;;;;219904;1268;24418;-55
2022/03/09 16:02:30;;;;;;;21.90;8.80;;;22.70;38.80;;;;;;220240;1268;25611;-57
2022/03/09 16:07:35;;;;;;;22.20;8.80;;;22.60;38.30;;;;;;220127;1268;22593;-57
2022/03/09 16:12:40;;;;;;;17.00;7.40;;;22.60;38.80;;;;;;219985;1268;22628;-52
2022/03/09 16:17:51;;;;;;;21.40;8.00;;;22.50;38.90;;;;;;220040;1268;24234;-53
2022/03/09 16:22:59;;;;;;;25.70;7.90;;;22.50;39.80;;;;;;219947;1268;22573;-54
2022/03/09 16:28:04;;;;;;;17.20;7.20;;;22.50;40.40;;;;;;220277;1268;24298;-54
2022/03/09 16:33:08;;;;;;;17.80;6.60;;;22.40;41.60;;;;;;219864;1268;22563;-57
2022/03/09 16:38:13;;;;;;;18.90;7.80;;;22.50;43.00;;;;;;220227;1268;22549;-59
2022/03/09 16:43:20;;;;;;;15.60;6.50;;;22.50;43.20;;;;;;219806;1268;25733;-55
2022/03/09 16:48:27;;;;;;;21.00;6.50;;;22.50;43.40;;;;;;219956;1268;193677;-54
2022/03/09 16:53:31;;;;;;;16.50;6.70;;;22.40;43.40;;;;;;220027;1268;25419;-52
2022/03/09 16:58:35;;;;;;;13.20;5.80;;;22.40;44.10;;;;;;219790;1268;22590;-56
2022/03/09 17:03:38;;;;;;;14.60;6.00;;;22.40;44.20;;;;;;219793;1268;22532;-55
2022/03/09 17:08:42;;;;;;;19.90;5.90;;;22.40;44.30;;;;;;220405;1268;22694;-56
2022/03/09 17:13:45;;;;;;;15.90;6.30;;;22.40;44.90;;;;;;220222;1268;23443;-52
2022/03/09 17:18:49;;;;;;;13.40;6.10;;;22.40;44.90;;;;;;219898;1268;24401;-56
2022/03/09 17:23:52;;;;;;;15.00;6.20;;;22.50;44.90;;;;;;219801;1268;22729;-56
2022/03/09 17:28:57;;;;;;;11.30;5.70;;;22.50;44.90;;;;;;219841;1268;24230;-53
2022/03/09 17:34:01;;;;;;;13.00;5.70;;;22.50;45.10;;;;;;220261;1268;25381;-55
2022/03/09 17:39:06;;;;;;;14.20;5.50;;;22.50;44.80;;;;;;219723;1268;24221;-54
2022/03/09 17:44:10;;;;;;;15.20;6.10;;;22.50;45.10;;;;;;219908;1267;22760;-53
2022/03/09 17:49:17;;;;;;;13.30;6.40;;;22.40;46.30;;;;;;219941;1267;22557;-56
2022/03/09 17:54:21;;;;;;;15.00;6.20;;;22.40;45.80;;;;;;220244;1268;24498;-53
2022/03/09 17:59:26;;;;;;;12.70;5.40;;;22.50;46.00;;;;;;220240;1268;24418;-56
2022/03/09 18:04:36;;;;;;;16.00;5.60;;;22.40;45.90;;;;;;220064;1267;24307;-61
2022/03/09 18:09:43;;;;;;;11.30;5.30;;;22.60;47.00;;;;;;220479;1267;25564;-57
2022/03/09 18:14:48;;;;;;;15.90;5.80;;;22.40;46.40;;;;;;219956;1267;26946;-51
2022/03/09 18:19:52;;;;;;;18.70;4.80;;;22.30;46.20;;;;;;219363;1267;26627;-54
2022/03/09 18:24:56;;;;;;;13.30;4.90;;;22.20;46.90;;;;;;221614;1267;26546;-57
2022/03/09 18:30:20;;;;;;;12.80;5.80;;;22.20;47.80;;;;;;219766;1267;22532;-58
2022/03/09 18:35:23;;;;;;;13.30;5.80;;;22.10;47.60;;;;;;220919;1266;22623;-57
2022/03/09 18:40:27;;;;;;;14.80;6.30;;;22.10;46.30;;;;;;219644;1267;22558;-50
2022/03/09 18:45:31;;;;;;;10.90;5.40;;;22.10;47.40;;;;;;219585;1267;22568;-52
2022/03/09 18:50:35;;;;;;;12.40;6.30;;;22.10;47.30;;;;;;219583;1267;24306;-53
2022/03/09 18:55:39;;;;;;;13.00;6.20;;;22.40;46.80;;;;;;219862;1267;24209;-55
2022/03/09 19:00:46;;;;;;;15.60;7.20;;;22.90;46.30;;;;;;220113;1267;22548;-54
2022/03/09 19:05:56;;;;;;;15.10;7.60;;;23.10;46.80;;;;;;219971;1267;24437;-54
2022/03/09 19:11:01;;;;;;;15.80;7.20;;;23.30;47.20;;;;;;219882;1267;23426;-54
2022/03/09 19:16:09;;;;;;;19.40;6.80;;;23.50;46.80;;;;;;220213;1267;25505;-54
2022/03/09 19:21:17;;;;;;;14.40;7.50;;;23.80;46.90;;;;;;220027;1268;24299;-54
2022/03/09 19:26:23;;;;;;;29.10;7.60;;;23.80;45.80;;;;;;219967;1268;22554;-52
2022/03/09 19:31:27;;;;;;;25.00;7.50;;;23.80;46.40;;;;;;219727;1267;23876;-57
2022/03/09 19:36:31;;;;;;;21.50;7.30;;;23.90;46.60;;;;;;219778;1268;23307;-57
2022/03/09 19:41:34;;;;;;;22.80;7.20;;;24.00;46.90;;;;;;219800;1267;23137;-57
2022/03/09 19:46:40;;;;;;;58.00;20.30;;;24.10;46.90;;;;;;220289;1267;25530;-55
2022/03/09 19:51:52;;;;;;;118.80;36.80;;;24.00;46.80;;;;;;220427;1268;22659;-56
2022/03/09 19:56:55;;;;;;;160.90;47.30;;;24.10;46.60;;;;;;220219;1267;22651;-57
2022/03/09 20:02:01;;;;;;;206.70;63.20;;;24.20;46.70;;;;;;220612;1268;25133;-57
2022/03/09 20:07:06;;;;;;;202.30;64.40;;;24.30;47.00;;;;;;220147;1267;22708;-57
2022/03/09 20:12:14;;;;;;;196.10;63.70;;;24.40;46.40;;;;;;220285;1268;22737;-58
2022/03/09 20:17:21;;;;;;;176.80;56.90;;;24.30;47.10;;;;;;220290;1268;23298;-55
2022/03/09 20:22:25;;;;;;;183.10;59.20;;;24.30;48.10;;;;;;220015;1268;23805;-54
2022/03/09 20:27:30;;;;;;;186.10;58.30;;;24.00;49.10;;;;;;220151;1267;22534;-52
2022/03/09 20:32:33;;;;;;;163.30;51.70;;;23.90;49.20;;;;;;220221;1267;25389;-52
2022/03/09 20:37:37;;;;;;;160.10;48.60;;;23.70;49.50;;;;;;220110;1267;22550;-54
2022/03/09 20:42:44;;;;;;;162.80;49.80;;;23.60;50.40;;;;;;219776;1267;23034;-52
2022/03/09 20:47:52;;;;;;;147.40;48.50;;;23.50;49.90;;;;;;220035;1267;22550;-51
2022/03/09 20:52:56;;;;;;;135.60;47.30;;;23.40;50.00;;;;;;219745;1268;22606;-55
2022/03/09 20:58:00;;;;;;;136.60;45.10;;;23.30;50.10;;;;;;220448;1267;22558;-51
2022/03/09 21:03:04;;;;;;;122.60;44.20;;;23.30;50.10;;;;;;220142;1267;24329;-53
2022/03/09 21:08:08;;;;;;;136.70;46.40;;;23.20;50.30;;;;;;219730;1267;22625;-51
2022/03/09 21:13:13;;;;;;;129.10;45.30;;;23.10;50.20;;;;;;219997;1267;22692;-53
2022/03/09 21:18:16;;;;;;;121.20;40.80;;;23.10;50.60;;;;;;219974;1267;26545;-53
2022/03/09 21:23:20;;;;;;;116.50;41.30;;;23.00;50.50;;;;;;219673;1267;26629;-53
2022/03/09 21:28:32;;;;;;;119.00;42.20;;;22.90;51.00;;;;;;219701;1267;22689;-51
2022/03/09 21:33:36;;;;;;;116.60;39.50;;;22.90;50.60;;;;;;219684;1267;24377;-53
2022/03/09 21:38:43;;;;;;;104.00;38.80;;;22.80;50.60;;;;;;219739;1267;22740;-54
2022/03/09 21:43:47;;;;;;;110.50;37.70;;;22.80;50.60;;;;;;220006;1267;24421;-56
2022/03/09 21:48:54;;;;;;;101.40;37.20;;;22.70;50.60;;;;;;220507;1267;25198;-53
2022/03/09 21:53:59;;;;;;;105.70;35.60;;;22.70;50.70;;;;;;219839;1267;24211;-51
2022/03/09 21:59:03;;;;;;;95.40;34.90;;;22.60;50.60;;;;;;219879;1267;22638;-51
2022/03/09 22:04:06;;;;;;;88.80;34.30;;;22.50;51.10;;;;;;219810;1267;22547;-54
2022/03/09 22:09:10;;;;;;;86.20;34.30;;;22.40;51.00;;;;;;219937;1267;22692;-54
2022/03/09 22:14:15;;;;;;;91.50;34.70;;;22.30;51.00;;;;;;219751;1267;25908;-52
2022/03/09 22:19:21;;;;;;;92.50;30.80;;;22.30;52.50;;;;;;220047;1267;22509;-53
2022/03/09 22:24:25;;;;;;;76.30;30.40;;;22.30;52.20;;;;;;220308;1267;22575;-54
2022/03/09 22:29:35;;;;;;;93.00;30.10;;;22.50;51.80;;;;;;219801;1267;25507;-51
2022/03/09 22:34:39;;;;;;;73.90;30.10;;;22.90;51.30;;;;;;220300;1266;25423;-50
2022/03/09 22:39:44;;;;;;;77.10;28.90;;;23.30;50.70;;;;;;220164;1267;26286;-53
2022/03/09 22:44:50;;;;;;;77.30;29.50;;;23.60;50.20;;;;;;220160;1267;25785;-53
2022/03/09 22:49:54;;;;;;;72.00;27.10;;;23.80;49.10;;;;;;219700;1267;22554;-54
2022/03/09 22:55:00;;;;;;;63.70;27.00;;;24.00;48.60;;;;;;224495;1267;22633;-52
2022/03/09 23:00:11;;;;;;;66.90;28.90;;;24.10;48.50;;;;;;220536;1266;25360;-54
2022/03/09 23:05:28;;;;;;;62.40;25.60;;;24.20;48.10;;;;;;220007;1267;22537;-54
2022/03/09 23:10:33;;;;;;;65.20;26.60;;;24.20;48.00;;;;;;219738;1267;24489;-51
2022/03/09 23:15:41;;;;;;;59.70;25.70;;;24.30;47.80;;;;;;220203;1267;25508;-52
2022/03/09 23:20:45;;;;;;;61.50;25.70;;;24.30;47.70;;;;;;219937;1267;24393;-55
2022/03/09 23:25:50;;;;;;;54.90;23.60;;;24.30;47.50;;;;;;219926;1267;22564;-55
2022/03/09 23:30:54;;;;;;;50.40;24.10;;;24.40;48.10;;;;;;219913;1267;22784;-52
2022/03/09 23:35:58;;;;;;;54.70;24.30;;;24.40;47.60;;;;;;220127;1267;24387;-52
2022/03/09 23:41:02;;;;;;;52.20;24.60;;;24.40;47.20;;;;;;219792;1267;26697;-53
2022/03/09 23:46:08;;;;;;;47.80;21.70;;;24.50;47.20;;;;;;220121;1267;24444;-52
2022/03/09 23:51:13;;;;;;;56.20;22.80;;;24.50;47.10;;;;;;219805;1267;25337;-51
2022/03/09 23:56:23;;;;;;;53.60;22.70;;;24.50;47.90;;;;;;219786;1267;22708;-55
